PST,Max TemperatureF,Mean TemperatureF,Min TemperatureF,Max Dew PointF,MeanDew PointF,Min DewpointF,Max Humidity, Mean Humidity, Min Humidity, Max Sea Level PressureIn, Mean Sea Level PressureIn, Min Sea Level PressureIn, Max VisibilityMiles, Mean VisibilityMiles, Min VisibilityMiles, Max Wind SpeedMPH, Mean Wind SpeedMPH, Max Gust SpeedMPH,PrecipitationIn, CloudCover, Events, WindDirDegrees
2013-2-1,46,40,35,43,40,34,100,88,77,30.43,30.39,30.35,10,10,5,7,5,,0.00,8,,175
2013-2-2,45,39,33,41,38,32,100,87,76,30.41,30.32,30.25,10,9,0,8,4,,0.00,7,Fog,104
2013-2-3,48,42,36,43,39,33,100,91,71,30.30,30.25,30.18,10,7,0,7,3,,0.00,7,Fog-Rain,193
2013-2-4,46,42,39,42,40,38,97,88,80,30.19,30.03,29.84,10,10,2,7,3,,0.00,8,,229
2013-2-5,51,44,37,43,40,37,97,87,63,29.88,29.80,29.77,10,10,2,10,4,,0.07,6,Rain,214
2013-2-6,46,42,37,41,39,36,96,87,74,29.97,29.88,29.66,10,10,7,6,2,,0.00,7,Rain,218
2013-2-7,45,40,35,39,35,33,93,80,68,30.21,30.00,29.70,10,10,10,18,6,26,0.00,3,Rain,255
2013-2-8,45,39,33,37,34,28,89,80,65,30.30,30.28,30.21,10,10,10,13,7,,0.00,3,,248
2013-2-9,45,43,41,41,38,33,93,84,70,30.35,30.28,30.25,10,10,4,9,4,,0.00,8,Rain,199
2013-2-10,46,42,37,39,37,34,93,80,63,30.38,30.36,30.33,10,10,10,7,2,,0.00,6,,182
2013-2-11,46,44,41,43,40,36,96,88,76,30.34,30.32,30.30,10,9,2,7,3,,0.00,8,Rain,263
2013-2-12,50,44,39,43,40,37,93,83,69,30.38,30.32,30.24,10,10,10,17,4,29,0.00,6,Rain,259
2013-2-13,48,44,41,42,39,34,90,78,61,30.49,30.42,30.29,10,10,10,13,6,18,0.00,6,,283
2013-2-14,48,45,42,43,42,39,96,90,76,30.57,30.52,30.48,10,10,7,5,2,,0.01,8,Rain,128
2013-2-15,46,42,36,44,42,35,97,92,85,30.57,30.43,30.17,10,6,0,9,2,,0.00,7,Fog-Rain,100
2013-2-16,50,44,37,43,38,33,97,82,57,30.18,30.15,30.12,10,10,3,21,6,26,0.00,6,Rain,282
2013-2-17,46,41,35,35,33,30,92,74,65,30.22,30.19,30.10,10,10,10,10,7,,0.00,3,,216
2013-2-18,45,40,34,36,34,31,92,80,68,30.09,29.89,29.71,10,10,10,9,5,,0.00,7,,235
2013-2-19,46,42,37,38,35,31,89,81,61,30.00,29.84,29.72,10,10,10,10,7,,0.00,6,Rain,232
2013-2-20,45,38,32,37,33,28,89,78,61,30.02,29.99,29.96,10,10,10,13,8,,0.00,5,Rain,235
2013-2-21,48,42,37,40,36,32,89,83,69,30.04,30.00,29.97,10,10,9,12,5,,0.01,7,Rain,185
2013-2-22,48,42,37,42,37,32,93,86,68,30.01,29.82,29.63,10,9,5,20,4,31,0.18,7,Rain,243
2013-2-23,46,42,39,35,33,30,83,69,54,30.35,30.14,29.88,10,10,6,22,14,36,0.02,5,Rain,265
2013-2-24,48,42,37,40,35,31,92,77,61,30.35,30.14,29.83,10,10,8,10,4,,0.00,7,Rain,124
2013-2-25,48,44,37,40,32,28,89,64,44,30.29,30.05,29.82,10,10,10,28,13,38,0.04,4,Rain,263
2013-2-26,45,40,35,37,32,27,89,74,58,30.31,30.22,30.12,10,10,8,12,6,,0.02,4,Rain,234
2013-2-27,48,42,35,39,36,33,100,83,63,30.29,30.26,30.19,10,10,10,10,5,,0.00,6,,152
2013-2-28,46,42,37,45,41,35,97,92,82,30.26,30.19,30.14,10,10,6,9,3,,0.04,8,Rain,240